createdAt,value
2019-04-11T00:03:06.503Z,6.57
2019-04-11T00:08:22.364Z,6.93
2019-04-11T00:13:36.718Z,7.30
2019-04-11T00:18:51.476Z,6.37
2019-04-11T00:24:06.986Z,6.07
2019-04-11T00:29:22.540Z,6.43
2019-04-11T00:34:37.667Z,6.23
2019-04-11T00:39:52.561Z,6.07
2019-04-11T00:45:07.621Z,6.33
2019-04-11T00:50:23.195Z,6.20
2019-04-11T00:55:38.003Z,6.60
2019-04-11T01:00:53.508Z,6.23
2019-04-11T01:06:10.037Z,6.83
2019-04-11T01:11:25.009Z,6.37
2019-04-11T01:16:45.076Z,6.37
2019-04-11T01:22:01.239Z,5.97
2019-04-11T01:27:16.092Z,6.10
2019-04-11T01:32:30.667Z,5.83
2019-04-11T01:37:46.070Z,6.17
2019-04-11T01:43:01.830Z,6.57
2019-04-11T01:48:21.643Z,5.70
2019-04-11T01:53:37.066Z,5.37
2019-04-11T01:58:51.555Z,5.10
2019-04-11T02:04:32.071Z,5.90
2019-04-11T02:09:46.409Z,5.20
2019-04-11T02:15:01.053Z,6.27
2019-04-11T02:20:16.740Z,4.90
2019-04-11T02:25:36.702Z,5.63
2019-04-11T02:30:55.640Z,5.83
2019-04-11T02:36:11.832Z,6.03
2019-04-11T02:41:27.375Z,6.40
2019-04-11T02:46:50.964Z,6.13
2019-04-11T02:51:58.614Z,5.67
2019-04-11T02:57:14.119Z,5.53
2019-04-11T03:02:32.671Z,5.27
2019-04-11T03:07:47.712Z,5.57
2019-04-11T03:13:02.992Z,5.33
2019-04-11T03:18:35.707Z,6.13
2019-04-11T03:23:35.453Z,5.67
2019-04-11T03:28:55.588Z,6.37
2019-04-11T03:39:43.924Z,5.50
2019-04-11T03:44:46.843Z,5.73
2019-04-11T03:50:05.361Z,5.80
2019-04-11T03:55:13.615Z,6.43
2019-04-11T04:00:34.056Z,5.90
2019-04-11T04:05:45.243Z,5.80
2019-04-11T04:11:12.141Z,6.20
2019-04-11T04:16:54.404Z,6.00
2019-04-11T04:22:16.091Z,5.67
2019-04-11T04:27:31.077Z,5.93
2019-04-11T04:32:47.147Z,5.97
2019-04-11T04:38:05.042Z,6.93
2019-04-11T04:43:20.319Z,6.47
2019-04-11T04:48:34.784Z,6.30
2019-04-11T04:53:50.131Z,5.80
2019-04-11T04:59:06.984Z,6.17
2019-04-11T05:04:21.130Z,5.80
2019-04-11T05:09:36.139Z,7.43
2019-04-11T05:14:51.953Z,6.27
2019-04-11T05:20:09.078Z,7.27
2019-04-11T05:25:23.907Z,7.03
2019-04-11T05:30:39.768Z,6.43
2019-04-11T05:35:54.538Z,6.70
2019-04-11T05:41:12.149Z,6.67
2019-04-11T05:46:33.441Z,7.00
2019-04-11T05:51:47.100Z,7.00
2019-04-11T05:57:01.236Z,6.67
2019-04-11T06:02:24.943Z,6.47
2019-04-11T06:07:55.612Z,7.13
2019-04-11T06:13:18.550Z,7.07
2019-04-11T06:18:52.205Z,7.20
2019-04-11T06:24:25.918Z,7.90
2019-04-11T06:29:45.621Z,6.47
2019-04-11T06:35:15.620Z,6.77
2019-04-11T06:40:41.836Z,8.13
2019-04-11T06:46:21.829Z,7.17
2019-04-11T06:51:40.659Z,6.57
2019-04-11T06:56:54.896Z,7.87
2019-04-11T07:02:17.327Z,7.80
2019-04-11T07:07:30.303Z,7.07
2019-04-11T07:13:03.453Z,7.20
2019-04-11T07:18:40.036Z,7.80
2019-04-11T07:24:12.115Z,8.33
2019-04-11T07:29:45.067Z,7.40
2019-04-11T07:35:27.741Z,8.00
2019-04-11T07:41:04.315Z,7.57
2019-04-11T07:46:40.720Z,7.77
2019-04-11T07:51:58.216Z,7.43
2019-04-11T07:57:23.714Z,6.63
2019-04-11T08:02:59.796Z,7.80
2019-04-11T08:08:32.390Z,8.53
2019-04-11T08:14:09.103Z,7.87
2019-04-11T08:19:55.360Z,7.80
2019-04-11T08:25:35.493Z,7.27
2019-04-11T08:31:28.617Z,7.77
2019-04-11T08:37:05.436Z,7.93
2019-04-11T08:42:44.808Z,7.97
2019-04-11T08:48:02.500Z,8.43
2019-04-11T08:53:48.988Z,8.07
2019-04-11T08:59:44.131Z,7.67
2019-04-11T09:05:20.745Z,7.77
2019-04-11T09:10:58.230Z,8.20
2019-04-11T09:16:30.359Z,7.87
2019-04-11T09:22:13.271Z,7.80
2019-04-11T09:27:45.111Z,8.20
2019-04-11T09:33:17.742Z,7.90
2019-04-11T09:38:38.116Z,7.30
2019-04-11T09:43:56.003Z,8.43
2019-04-11T09:49:27.101Z,8.50
2019-04-11T09:55:09.948Z,9.23
2019-04-11T10:00:43.195Z,8.33
2019-04-11T10:06:15.911Z,8.80
2019-04-11T10:11:55.342Z,7.43
2019-04-11T10:17:27.884Z,7.53
2019-04-11T10:23:04.690Z,7.87
2019-04-11T10:28:46.047Z,8.53
2019-04-11T10:34:17.982Z,8.10
2019-04-11T10:39:54.897Z,8.30
2019-04-11T10:45:28.875Z,8.47
2019-04-11T10:51:17.938Z,9.07
2019-04-11T10:56:39.138Z,8.37
2019-04-11T11:02:12.668Z,8.97
2019-04-11T11:07:30.760Z,10.03
2019-04-11T11:13:21.647Z,9.73
2019-04-11T11:19:24.526Z,10.10
2019-04-11T11:24:29.891Z,9.37
2019-04-11T11:30:04.278Z,9.57
2019-04-11T11:35:39.086Z,9.57
2019-04-11T11:41:18.404Z,9.03
2019-04-11T11:46:40.596Z,10.07
2019-04-11T11:52:31.945Z,10.00
2019-04-11T11:57:53.140Z,10.90
2019-04-11T12:03:30.743Z,10.00
2019-04-11T12:09:00.340Z,10.60
2019-04-11T12:14:35.228Z,9.70
2019-04-11T12:20:04.825Z,10.80
2019-04-11T12:25:27.450Z,11.70
2019-04-11T12:30:53.064Z,10.23
2019-04-11T12:36:20.986Z,9.27
2019-04-11T12:42:06.834Z,10.63
2019-04-11T12:47:46.225Z,11.03
2019-04-11T12:53:09.039Z,9.27
2019-04-11T12:58:49.140Z,10.50
2019-04-11T13:04:21.389Z,11.03
2019-04-11T13:09:40.689Z,9.43
2019-04-11T13:15:55.581Z,10.00
2019-04-11T13:21:23.141Z,10.37
2019-04-11T13:26:57.710Z,10.67
2019-04-11T13:32:32.119Z,9.97
2019-04-11T13:38:08.329Z,11.43
2019-04-11T13:43:42.158Z,10.13
2019-04-11T13:49:26.455Z,8.97
2019-04-11T13:55:00.415Z,10.57
2019-04-11T14:00:32.441Z,10.00
2019-04-11T14:05:49.818Z,9.60
2019-04-11T14:11:07.536Z,9.80
2019-04-11T14:16:34.684Z,9.33
2019-04-11T14:21:49.707Z,9.43
2019-04-11T14:27:06.467Z,9.93
2019-04-11T14:32:26.071Z,9.23
2019-04-11T14:37:59.654Z,9.00
2019-04-11T14:43:38.773Z,8.97
2019-04-11T14:49:18.019Z,9.27
2019-04-11T14:54:44.036Z,9.90
2019-04-11T15:00:43.147Z,9.80
2019-04-11T15:06:15.944Z,9.03
2019-04-11T15:11:52.121Z,9.10
2019-04-11T15:17:32.137Z,8.80
2019-04-11T15:23:00.590Z,9.40
2019-04-11T15:28:43.683Z,8.80
2019-04-11T15:34:21.017Z,8.30
2019-04-11T15:40:07.089Z,7.87
2019-04-11T15:45:33.976Z,8.43
2019-04-11T15:51:07.033Z,8.30
2019-04-11T15:57:02.724Z,7.33
2019-04-11T16:02:50.490Z,8.37
2019-04-11T16:08:23.761Z,8.03
2019-04-11T16:13:45.142Z,8.20
2019-04-11T16:19:17.718Z,7.90
2019-04-11T16:24:33.716Z,7.37
2019-04-11T16:29:56.419Z,8.00
2019-04-11T16:35:29.915Z,7.50
2019-04-11T16:41:28.295Z,7.07
2019-04-11T16:47:03.046Z,7.07
2019-04-11T16:52:17.568Z,7.63
2019-04-11T16:57:32.241Z,7.47
2019-04-11T17:02:46.653Z,7.40
2019-04-11T17:08:25.711Z,7.40
2019-04-11T17:13:38.594Z,6.43
2019-04-11T17:18:53.447Z,6.40
2019-04-11T17:24:10.339Z,6.87
2019-04-11T17:29:25.516Z,7.27
2019-04-11T17:34:39.981Z,7.00
2019-04-11T17:39:54.598Z,6.27
2019-04-11T17:45:12.245Z,6.77
2019-04-11T17:50:26.869Z,6.60
2019-04-11T18:01:00.399Z,7.47
2019-04-11T18:06:17.169Z,6.67
2019-04-11T18:11:32.197Z,6.93
2019-04-11T18:16:46.848Z,6.40
2019-04-11T18:22:07.754Z,6.30
2019-04-11T18:27:21.556Z,7.20
2019-04-11T18:32:36.749Z,7.00
2019-04-11T18:37:51.260Z,7.13
2019-04-11T18:43:06.224Z,7.70
2019-04-11T18:48:20.472Z,8.20
2019-04-11T18:53:36.065Z,7.57
2019-04-11T18:58:50.862Z,7.67
2019-04-11T19:04:11.721Z,7.30
2019-04-11T19:09:25.027Z,7.97
2019-04-11T19:14:43.810Z,7.77
2019-04-11T19:20:31.518Z,8.20
2019-04-11T19:25:46.395Z,7.33
2019-04-11T19:31:01.655Z,7.53
2019-04-11T19:36:16.464Z,7.10
2019-04-11T19:41:31.397Z,7.43
2019-04-11T19:46:45.814Z,7.70
2019-04-11T19:52:02.068Z,7.70
2019-04-11T19:57:16.743Z,7.20
2019-04-11T20:02:34.626Z,7.83
2019-04-11T20:07:49.215Z,8.47
2019-04-11T20:13:03.816Z,6.90
2019-04-11T20:18:22.215Z,8.37
2019-04-11T20:23:34.332Z,7.50
2019-04-11T20:28:50.886Z,7.67
2019-04-11T20:34:09.164Z,6.83
2019-04-11T20:39:26.742Z,6.20
2019-04-11T20:44:41.392Z,7.47
2019-04-11T20:49:56.336Z,7.10
2019-04-11T20:55:14.477Z,6.50
2019-04-11T21:00:30.245Z,7.50
2019-04-11T21:05:44.933Z,6.80
2019-04-11T21:11:02.003Z,6.93
2019-04-11T21:16:19.008Z,7.47
2019-04-11T21:21:34.092Z,6.53
2019-04-11T21:26:48.608Z,6.63
2019-04-11T21:32:03.173Z,5.87
2019-04-11T21:37:17.962Z,7.07
2019-04-11T21:42:36.058Z,6.87
2019-04-11T21:47:50.205Z,6.63
2019-04-11T21:53:04.907Z,6.37
2019-04-11T21:58:20.091Z,6.17
2019-04-11T22:03:35.128Z,6.50
2019-04-11T22:08:50.183Z,6.80
2019-04-11T22:14:05.000Z,6.40
2019-04-11T22:19:20.114Z,6.00
2019-04-11T22:24:34.561Z,6.50
2019-04-11T22:29:49.085Z,5.77
2019-04-11T22:35:03.548Z,6.33
2019-04-11T22:40:17.830Z,5.80
2019-04-11T22:45:32.526Z,5.67
2019-04-11T22:50:47.513Z,5.63
2019-04-11T22:56:01.817Z,6.27
2019-04-11T23:01:17.160Z,6.03
2019-04-11T23:06:31.675Z,5.80
2019-04-11T23:11:47.948Z,6.57
2019-04-11T23:17:03.971Z,6.17
2019-04-11T23:22:18.802Z,6.33
2019-04-11T23:27:33.240Z,6.10
2019-04-11T23:32:50.829Z,6.30
2019-04-11T23:38:03.543Z,6.60
2019-04-11T23:43:19.888Z,6.30
2019-04-11T23:48:34.294Z,6.07
2019-04-11T23:53:48.727Z,5.90
2019-04-11T23:59:03.291Z,5.97
